Lone Tree, North Dakota
Current Conditions -  °F | °C
As of 8:58 PM on Wednesday 26 Nov 2014 (Local Time) from KMIB Reporting Station
Clear Clear  
Wind Chill: -39°   Ceiling: Unl
Heat Index: -25°   Visibility: 10mi
Dew Point: -30°   Wind: 5mph
Humidity: 79%   Direction: 270°W
Pressure: 30.45"   Gusts: NA
Location:  48.3281°N, 101.856°W
Report Text: KMIB 270258Z AUTO 27004KT 10SM CLR M32/M34 A3045 RMK AO2 VIS 1/2 RWY29 SLP377 T13181344 55000
Loading
Personal Weather Stations






























Interactive Weather Map New forecast layout! Learn more

10-Day Weather Forecast

Advertisements
Track Severe Weather on mobile